Time;durP1;ratioP1;P1;durP2;ratioP2;P2;SDS_P1;SDS_P2;PMS_P1;PMS_P2;Temp;Humidity;BMP_temperature;BMP_pressure;BME280_temperature;BME280_humidity;BME280_pressure;Samples;Min_cycle;Max_cycle;Signal;HPM_P1;HPM_P2
2022/08/02 00:00:16;;;;;;;3.80;2.97;;;;;;;;;;4378070;32;20070;-65
2022/08/02 00:02:44;;;;;;;6.30;3.30;;;;;;;;;;4377808;32;20078;-64
2022/08/02 00:05:11;;;;;;;4.07;2.95;;;;;;;;;;4391530;32;20488;-64
2022/08/02 00:07:38;;;;;;;5.00;3.00;;;;;;;;;;4390088;32;20162;-65
2022/08/02 00:10:06;;;;;;;5.62;3.30;;;;;;;;;;4390422;32;20171;-64
2022/08/02 00:12:33;;;;;;;5.03;3.08;;;;;;;;;;4377793;32;20169;-64
2022/08/02 00:15:00;;;;;;;4.03;3.03;;;;;;;;;;4390425;32;20073;-64
2022/08/02 00:17:27;;;;;;;4.70;3.28;;;;;;;;;;4377666;32;20508;-64
2022/08/02 00:19:53;;;;;;;6.72;3.55;;;;;;;;;;4390106;32;20618;-64
2022/08/02 00:22:20;;;;;;;6.60;3.42;;;;;;;;;;4389912;32;20085;-64
2022/08/02 00:24:46;;;;;;;6.03;3.35;;;;;;;;;;4391753;32;20091;-65
2022/08/02 00:27:13;;;;;;;5.53;3.65;;;;;;;;;;4391390;32;20069;-64
2022/08/02 00:29:40;;;;;;;6.60;3.50;;;;;;;;;;4391441;32;20164;-65
2022/08/02 00:32:06;;;;;;;6.45;3.25;;;;;;;;;;4391301;32;20101;-64
2022/08/02 00:34:33;;;;;;;4.80;3.50;;;;;;;;;;4377495;32;20153;-64
2022/08/02 00:36:59;;;;;;;4.25;3.17;;;;;;;;;;4391026;32;20167;-64
2022/08/02 00:39:26;;;;;;;5.75;3.15;;;;;;;;;;4389845;32;20162;-64
2022/08/02 00:41:53;;;;;;;6.20;3.22;;;;;;;;;;4389910;32;20081;-64
2022/08/02 00:44:20;;;;;;;4.12;3.25;;;;;;;;;;4391272;32;20081;-64
2022/08/02 00:46:47;;;;;;;6.60;3.03;;;;;;;;;;4389661;32;20064;-64
2022/08/02 00:49:14;;;;;;;5.53;3.17;;;;;;;;;;4377533;32;20082;-65
2022/08/02 00:51:41;;;;;;;5.72;3.58;;;;;;;;;;4377453;32;20078;-65
2022/08/02 00:54:08;;;;;;;4.53;3.30;;;;;;;;;;4377804;32;20078;-65
2022/08/02 00:56:35;;;;;;;4.75;3.22;;;;;;;;;;4377157;32;20146;-64
2022/08/02 00:59:02;;;;;;;4.97;3.15;;;;;;;;;;4389919;32;20093;-63
2022/08/02 01:01:38;;;;;;;6.03;3.22;;;;;;;;;;4391252;32;20085;-64
2022/08/02 01:04:10;;;;;;;5.87;3.42;;;;;;;;;;4394178;32;20083;-64
2022/08/02 01:06:38;;;;;;;5.28;3.83;;;;;;;;;;4394266;32;20088;-64
2022/08/02 01:09:05;;;;;;;7.22;3.28;;;;;;;;;;4368092;32;20573;-65
2022/08/02 01:11:33;;;;;;;5.50;3.72;;;;;;;;;;4392831;32;20085;-64
2022/08/02 01:14:09;;;;;;;6.82;3.78;;;;;;;;;;4393686;32;20158;-65
2022/08/02 01:16:57;;;;;;;5.40;3.20;;;;;;;;;;4392391;32;20531;-65
2022/08/02 01:20:25;;;;;;;5.60;3.37;;;;;;;;;;4394177;32;20073;-64
2022/08/02 01:22:54;;;;;;;;;;;;;;;;;;4321073;33;20175;-64
2022/08/02 01:25:56;;;;;;;5.82;3.37;;;;;;;;;;4393921;32;19977;-65
2022/08/02 01:28:49;;;;;;;4.12;3.17;;;;;;;;;;4362632;32;20063;-64
2022/08/02 01:31:39;;;;;;;6.87;3.12;;;;;;;;;;4392379;32;20065;-64
2022/08/02 01:34:24;;;;;;;4.22;3.10;;;;;;;;;;4393533;32;20158;-64
2022/08/02 01:37:31;;;;;;;4.45;3.00;;;;;;;;;;4393812;32;20095;-65
2022/08/02 01:40:04;;;;;;;6.87;3.42;;;;;;;;;;4382406;32;20520;-65
2022/08/02 01:42:31;;;;;;;4.28;3.10;;;;;;;;;;4379817;32;20081;-65
2022/08/02 01:44:59;;;;;;;5.90;3.72;;;;;;;;;;4392470;32;20078;-65
2022/08/02 01:47:30;;;;;;;5.35;3.33;;;;;;;;;;4392004;32;20074;-64
2022/08/02 01:49:58;;;;;;;5.37;3.60;;;;;;;;;;4391955;32;20113;-64
2022/08/02 01:52:32;;;;;;;4.78;3.62;;;;;;;;;;4392183;32;20560;-65
2022/08/02 01:55:06;;;;;;;4.55;3.12;;;;;;;;;;4379597;32;20198;-64
2022/08/02 01:57:51;;;;;;;6.10;3.05;;;;;;;;;;4379899;32;20094;-64
2022/08/02 02:00:20;;;;;;;5.85;3.28;;;;;;;;;;4393097;32;20543;-64
2022/08/02 02:02:48;;;;;;;4.68;3.08;;;;;;;;;;4392364;32;20074;-64
2022/08/02 02:05:17;;;;;;;5.47;3.00;;;;;;;;;;4379597;32;20192;-64
2022/08/02 02:07:45;;;;;;;5.28;3.42;;;;;;;;;;4366638;32;20584;-65
2022/08/02 02:10:20;;;;;;;4.72;3.25;;;;;;;;;;4391670;32;20149;-64
2022/08/02 02:12:50;;;;;;;5.97;3.20;;;;;;;;;;4392029;32;20096;-65
2022/08/02 02:15:17;;;;;;;7.70;3.17;;;;;;;;;;4392233;32;20085;-64
2022/08/02 02:17:46;;;;;;;4.50;3.20;;;;;;;;;;4379081;32;20070;-63
2022/08/02 02:20:17;;;;;;;3.80;3.10;;;;;;;;;;4391385;32;20531;-64
2022/08/02 02:22:44;;;;;;;4.50;3.20;;;;;;;;;;4392596;32;20228;-64
2022/08/02 02:25:11;;;;;;;5.68;3.00;;;;;;;;;;4391576;32;20097;-64
2022/08/02 02:27:42;;;;;;;5.05;3.55;;;;;;;;;;4392265;32;20074;-64
2022/08/02 02:30:10;;;;;;;6.22;3.50;;;;;;;;;;4393225;32;20166;-64
2022/08/02 02:32:36;;;;;;;4.30;3.22;;;;;;;;;;4366341;32;20089;-64
2022/08/02 02:35:04;;;;;;;3.95;3.00;;;;;;;;;;4379082;32;20158;-65
2022/08/02 02:37:32;;;;;;;5.25;3.42;;;;;;;;;;4391062;32;20622;-64
2022/08/02 02:39:58;;;;;;;4.68;3.10;;;;;;;;;;4391450;32;20149;-64
2022/08/02 02:42:29;;;;;;;7.35;3.90;;;;;;;;;;4392221;32;20581;-65
2022/08/02 02:44:57;;;;;;;5.18;3.30;;;;;;;;;;4379115;32;20526;-65
2022/08/02 02:47:24;;;;;;;5.47;3.62;;;;;;;;;;4391266;32;20149;-64
2022/08/02 02:49:51;;;;;;;5.37;3.72;;;;;;;;;;4391076;32;20078;-64
2022/08/02 02:52:19;;;;;;;6.32;4.43;;;;;;;;;;4390835;32;20077;-64
2022/08/02 02:54:48;;;;;;;8.07;4.25;;;;;;;;;;4391694;32;20452;-64
2022/08/02 02:57:15;;;;;;;7.20;4.20;;;;;;;;;;4391912;32;20078;-64
2022/08/02 02:59:42;;;;;;;6.72;4.00;;;;;;;;;;4390787;32;20092;-63
2022/08/02 03:02:10;;;;;;;6.37;3.58;;;;;;;;;;4391572;32;20143;-64
2022/08/02 03:04:37;;;;;;;6.00;4.10;;;;;;;;;;4390877;32;20156;-66
2022/08/02 03:07:04;;;;;;;7.95;3.60;;;;;;;;;;4390491;32;20524;-64
2022/08/02 03:09:30;;;;;;;4.80;3.00;;;;;;;;;;4391063;32;20084;-65
2022/08/02 03:11:57;;;;;;;6.32;3.53;;;;;;;;;;4378270;32;20160;-64
2022/08/02 03:14:24;;;;;;;6.00;3.42;;;;;;;;;;4390541;32;20152;-65
2022/08/02 03:16:53;;;;;;;5.03;3.42;;;;;;;;;;4378852;32;20180;-64
2022/08/02 03:19:22;;;;;;;3.53;2.80;;;;;;;;;;4390623;32;20108;-64
2022/08/02 03:21:49;;;;;;;5.72;3.35;;;;;;;;;;4378595;32;20526;-64
2022/08/02 03:24:16;;;;;;;4.28;3.33;;;;;;;;;;4390609;32;20120;-64
2022/08/02 03:26:43;;;;;;;8.15;3.53;;;;;;;;;;4378228;32;20061;-64
2022/08/02 03:29:10;;;;;;;6.32;3.60;;;;;;;;;;4390282;32;20583;-65
2022/08/02 03:31:38;;;;;;;6.00;3.70;;;;;;;;;;4391728;32;20100;-65
2022/08/02 03:34:05;;;;;;;6.40;3.40;;;;;;;;;;4390587;32;20150;-66
2022/08/02 03:36:33;;;;;;;6.35;3.40;;;;;;;;;;4391037;32;20066;-65
2022/08/02 03:39:00;;;;;;;7.65;3.80;;;;;;;;;;4390828;32;20090;-64
2022/08/02 03:41:26;;;;;;;8.80;3.53;;;;;;;;;;4378745;32;20077;-64
2022/08/02 03:43:54;;;;;;;5.70;3.85;;;;;;;;;;4378313;32;20066;-65
2022/08/02 03:46:22;;;;;;;5.47;3.50;;;;;;;;;;4390266;32;20444;-66
2022/08/02 03:48:50;;;;;;;5.53;3.62;;;;;;;;;;4390414;32;20101;-64
2022/08/02 03:51:18;;;;;;;5.55;3.30;;;;;;;;;;4390868;32;20194;-65
2022/08/02 03:53:45;;;;;;;7.90;3.85;;;;;;;;;;4390119;32;20463;-65
2022/08/02 03:56:11;;;;;;;6.12;3.25;;;;;;;;;;4378312;32;20437;-63
2022/08/02 03:58:38;;;;;;;6.87;3.90;;;;;;;;;;4391700;32;20511;-65
2022/08/02 04:01:05;;;;;;;5.72;3.45;;;;;;;;;;4390081;32;20622;-64
2022/08/02 04:03:31;;;;;;;5.93;3.87;;;;;;;;;;4390609;32;20597;-65
2022/08/02 04:05:58;;;;;;;6.03;3.60;;;;;;;;;;4392141;32;20082;-65
2022/08/02 04:08:25;;;;;;;8.35;4.00;;;;;;;;;;4390623;32;20152;-64
2022/08/02 04:13:37;;;;;;;4.72;3.42;;;;;;;;;;4391560;32;20065;-65
2022/08/02 04:16:33;;;;;;;7.82;5.00;;;;;;;;;;4390288;32;20100;-65
2022/08/02 04:19:05;;;;;;;6.80;3.60;;;;;;;;;;4367276;32;20093;-62
2022/08/02 04:21:36;;;;;;;5.70;3.42;;;;;;;;;;4390127;32;20086;-62
2022/08/02 04:24:03;;;;;;;3.97;3.08;;;;;;;;;;4389696;32;20063;-64
2022/08/02 04:26:31;;;;;;;5.45;3.78;;;;;;;;;;4390046;32;20541;-65
2022/08/02 04:28:59;;;;;;;7.40;4.28;;;;;;;;;;4377420;32;20088;-64
2022/08/02 04:31:26;;;;;;;7.72;4.35;;;;;;;;;;4389661;32;20069;-64
2022/08/02 04:33:53;;;;;;;6.57;4.25;;;;;;;;;;4389866;32;20191;-64
2022/08/02 04:36:19;;;;;;;7.20;4.15;;;;;;;;;;4392552;32;20227;-64
2022/08/02 04:38:48;;;;;;;7.00;4.00;;;;;;;;;;4380930;32;20077;-65
2022/08/02 04:41:15;;;;;;;7.72;3.95;;;;;;;;;;4392725;32;20083;-65
2022/08/02 04:43:42;;;;;;;6.85;4.72;;;;;;;;;;4394224;32;20070;-64
2022/08/02 04:46:08;;;;;;;5.40;3.97;;;;;;;;;;4392843;32;20100;-64
2022/08/02 04:48:35;;;;;;;7.95;4.18;;;;;;;;;;4380238;32;20070;-64
2022/08/02 04:51:02;;;;;;;6.62;5.15;;;;;;;;;;4393981;32;20066;-64
2022/08/02 04:53:28;;;;;;;6.50;5.12;;;;;;;;;;4379988;32;20535;-64
2022/08/02 04:55:55;;;;;;;9.05;4.68;;;;;;;;;;4392836;32;20548;-64
2022/08/02 04:58:22;;;;;;;8.13;4.70;;;;;;;;;;4392822;32;20096;-65
2022/08/02 05:00:48;;;;;;;9.23;5.30;;;;;;;;;;4394269;32;20512;-65
2022/08/02 05:03:15;;;;;;;6.32;4.70;;;;;;;;;;4394139;32;20153;-64
2022/08/02 05:05:42;;;;;;;7.87;5.40;;;;;;;;;;4393326;32;20160;-64
2022/08/02 05:08:09;;;;;;;5.32;3.80;;;;;;;;;;4380266;32;20085;-64
2022/08/02 05:10:36;;;;;;;6.28;4.32;;;;;;;;;;4392604;32;20077;-64
2022/08/02 05:13:04;;;;;;;6.97;5.45;;;;;;;;;;4392369;32;20132;-64
2022/08/02 05:15:31;;;;;;;6.35;4.12;;;;;;;;;;4380368;32;20089;-65
2022/08/02 05:17:57;;;;;;;6.47;4.50;;;;;;;;;;4379569;32;20078;-65
2022/08/02 05:20:24;;;;;;;7.85;4.87;;;;;;;;;;4394173;32;20088;-64
2022/08/02 05:22:51;;;;;;;9.25;4.93;;;;;;;;;;4392498;32;20112;-66
2022/08/02 05:25:17;;;;;;;8.25;4.78;;;;;;;;;;4392354;32;20580;-65
2022/08/02 05:27:44;;;;;;;6.05;4.35;;;;;;;;;;4393923;32;20512;-65
2022/08/02 05:30:11;;;;;;;5.47;4.37;;;;;;;;;;4393460;32;20169;-65
2022/08/02 05:32:45;;;;;;;5.53;4.15;;;;;;;;;;4393541;32;20094;-64
2022/08/02 05:35:12;;;;;;;7.03;4.87;;;;;;;;;;4392334;32;20080;-65
2022/08/02 05:37:38;;;;;;;5.75;4.80;;;;;;;;;;4379737;32;20464;-66
2022/08/02 05:40:06;;;;;;;8.30;5.00;;;;;;;;;;4392122;32;20539;-64
2022/08/02 05:42:33;;;;;;;9.65;5.12;;;;;;;;;;4391965;32;20161;-64
2022/08/02 05:45:00;;;;;;;6.68;4.93;;;;;;;;;;4393293;32;20567;-64
2022/08/02 05:47:26;;;;;;;6.32;4.65;;;;;;;;;;4391159;32;20124;-66
2022/08/02 05:49:53;;;;;;;5.70;4.12;;;;;;;;;;4379110;32;20499;-64
2022/08/02 05:52:20;;;;;;;7.28;5.60;;;;;;;;;;4379091;32;20094;-64
2022/08/02 05:54:49;;;;;;;9.15;5.25;;;;;;;;;;4366461;32;20475;-66
2022/08/02 05:57:25;;;;;;;7.82;5.50;;;;;;;;;;4394601;32;20057;-66
2022/08/02 06:00:09;;;;;;;6.72;4.68;;;;;;;;;;4391840;32;20260;-63
2022/08/02 06:03:17;;;;;;;7.78;5.62;;;;;;;;;;4393993;32;20089;-64
2022/08/02 06:05:59;;;;;;;8.68;5.57;;;;;;;;;;4391599;32;20089;-65
2022/08/02 06:08:51;;;;;;;6.25;4.20;;;;;;;;;;4392294;32;20069;-65
2022/08/02 06:11:21;;;;;;;7.95;5.25;;;;;;;;;;4392481;32;20074;-66
2022/08/02 06:13:48;;;;;;;6.90;4.57;;;;;;;;;;4379281;32;20100;-65
2022/08/02 06:16:15;;;;;;;11.38;7.47;;;;;;;;;;4392898;32;20065;-64
2022/08/02 06:18:43;;;;;;;7.37;5.20;;;;;;;;;;4367022;32;20112;-64
2022/08/02 06:21:10;;;;;;;8.98;6.93;;;;;;;;;;4379414;32;20093;-64
2022/08/02 06:23:42;;;;;;;8.10;6.47;;;;;;;;;;4378384;32;20086;-63
2022/08/02 06:26:09;;;;;;;8.50;6.82;;;;;;;;;;4391336;32;20096;-62
2022/08/02 06:28:37;;;;;;;11.52;7.18;;;;;;;;;;4378803;32;20092;-64
2022/08/02 06:31:06;;;;;;;7.70;6.18;;;;;;;;;;4391694;32;20074;-63
2022/08/02 06:33:33;;;;;;;9.57;6.47;;;;;;;;;;4391678;32;20073;-63
2022/08/02 06:36:40;;;;;;;8.48;6.60;;;;;;;;;;4379276;32;20081;-63
2022/08/02 06:39:22;;;;;;;;;;;;;;;;;;4379001;32;20093;-64
2022/08/02 06:41:50;;;;;;;9.68;6.55;;;;;;;;;;4378865;32;19984;-64
2022/08/02 06:44:17;;;;;;;11.80;7.47;;;;;;;;;;4391851;32;20170;-63
2022/08/02 06:46:53;;;;;;;12.77;7.05;;;;;;;;;;4391979;32;20077;-64
2022/08/02 06:49:20;;;;;;;9.77;6.75;;;;;;;;;;4378756;32;20069;-63
2022/08/02 06:51:47;;;;;;;8.25;5.78;;;;;;;;;;4378260;32;20504;-65
2022/08/02 06:54:20;;;;;;;8.75;7.07;;;;;;;;;;4365897;32;20078;-64
2022/08/02 06:56:47;;;;;;;10.75;7.82;;;;;;;;;;4391256;32;20096;-64
2022/08/02 06:59:14;;;;;;;10.48;7.12;;;;;;;;;;4377861;32;20097;-63
2022/08/02 07:01:41;;;;;;;11.07;7.47;;;;;;;;;;4390772;32;20595;-64
2022/08/02 07:04:09;;;;;;;11.32;8.23;;;;;;;;;;4378837;32;20463;-63
2022/08/02 07:06:36;;;;;;;12.57;7.60;;;;;;;;;;4391479;32;20069;-64
2022/08/02 07:09:03;;;;;;;10.88;7.32;;;;;;;;;;4391533;32;20081;-63
2022/08/02 07:11:30;;;;;;;9.13;6.30;;;;;;;;;;4366135;32;20073;-65
2022/08/02 07:13:56;;;;;;;9.48;7.05;;;;;;;;;;4390927;32;20070;-64
2022/08/02 07:16:23;;;;;;;10.70;6.50;;;;;;;;;;4379390;32;20090;-64
2022/08/02 07:18:50;;;;;;;9.77;7.70;;;;;;;;;;4393294;32;20085;-64
2022/08/02 07:21:16;;;;;;;10.35;8.10;;;;;;;;;;4379630;32;20531;-63
2022/08/02 07:23:43;;;;;;;11.40;8.20;;;;;;;;;;4393780;32;20089;-65
2022/08/02 07:26:10;;;;;;;13.07;8.50;;;;;;;;;;4379517;32;20448;-64
2022/08/02 07:28:36;;;;;;;11.07;7.95;;;;;;;;;;4379776;32;20085;-65
2022/08/02 07:31:03;;;;;;;11.45;9.07;;;;;;;;;;4379805;32;20093;-63
2022/08/02 07:33:30;;;;;;;12.13;8.13;;;;;;;;;;4393077;32;20220;-65
2022/08/02 07:35:57;;;;;;;9.73;7.20;;;;;;;;;;4393604;32;20082;-64
2022/08/02 07:38:24;;;;;;;10.43;7.43;;;;;;;;;;4391645;32;20520;-64
2022/08/02 07:40:51;;;;;;;12.25;8.55;;;;;;;;;;4391862;32;20173;-63
2022/08/02 07:43:17;;;;;;;11.10;7.65;;;;;;;;;;4391646;32;20078;-63
2022/08/02 07:45:44;;;;;;;9.90;7.15;;;;;;;;;;4391840;32;20456;-63
2022/08/02 07:48:11;;;;;;;8.68;6.80;;;;;;;;;;4389917;32;20078;-64
2022/08/02 07:50:38;;;;;;;11.27;7.97;;;;;;;;;;4391547;32;20073;-64
2022/08/02 07:53:04;;;;;;;11.18;7.50;;;;;;;;;;4392059;32;20074;-63
2022/08/02 07:55:31;;;;;;;11.63;8.50;;;;;;;;;;4390319;32;20074;-63
2022/08/02 07:57:59;;;;;;;13.52;8.90;;;;;;;;;;4365470;32;20103;-64
2022/08/02 08:00:25;;;;;;;10.70;8.20;;;;;;;;;;4390048;32;20155;-64
2022/08/02 08:02:52;;;;;;;11.57;8.18;;;;;;;;;;4389987;32;20127;-64
2022/08/02 08:05:19;;;;;;;10.82;9.40;;;;;;;;;;4390680;32;20062;-64
2022/08/02 08:07:45;;;;;;;11.75;7.68;;;;;;;;;;4364936;32;20145;-64
2022/08/02 08:10:12;;;;;;;10.10;8.57;;;;;;;;;;4391298;32;20065;-65
2022/08/02 08:12:39;;;;;;;10.50;7.85;;;;;;;;;;4391621;32;20173;-65
2022/08/02 08:15:06;;;;;;;12.25;9.20;;;;;;;;;;4389671;32;20249;-64
2022/08/02 08:17:33;;;;;;;12.90;9.02;;;;;;;;;;4391300;32;20170;-65
2022/08/02 08:20:01;;;;;;;12.52;8.45;;;;;;;;;;4389736;32;20072;-63
2022/08/02 08:22:28;;;;;;;8.52;6.45;;;;;;;;;;4364941;32;20143;-64
2022/08/02 08:24:55;;;;;;;11.73;8.77;;;;;;;;;;4377374;32;20093;-64
2022/08/02 08:27:22;;;;;;;11.15;7.53;;;;;;;;;;4390259;32;20153;-63
2022/08/02 08:29:49;;;;;;;12.20;8.80;;;;;;;;;;4390216;32;20077;-64
2022/08/02 08:32:16;;;;;;;12.13;9.10;;;;;;;;;;4389995;32;20599;-64
2022/08/02 08:34:42;;;;;;;12.00;8.00;;;;;;;;;;4377592;32;20082;-64
2022/08/02 08:37:09;;;;;;;12.13;8.65;;;;;;;;;;4377451;32;20082;-64
2022/08/02 08:39:36;;;;;;;9.90;8.00;;;;;;;;;;4377383;32;20145;-64
2022/08/02 08:42:06;;;;;;;10.15;7.62;;;;;;;;;;4389556;32;20062;-65
2022/08/02 08:44:34;;;;;;;12.15;9.55;;;;;;;;;;4377020;32;20451;-63
2022/08/02 08:47:01;;;;;;;16.15;10.30;;;;;;;;;;4377234;32;20089;-64
2022/08/02 08:49:40;;;;;;;11.95;8.27;;;;;;;;;;4364611;32;20471;-64
2022/08/02 08:52:07;;;;;;;14.60;9.07;;;;;;;;;;4364847;32;20460;-65
2022/08/02 08:54:35;;;;;;;12.05;8.38;;;;;;;;;;4389432;32;20193;-64
2022/08/02 08:57:06;;;;;;;13.13;8.88;;;;;;;;;;4389693;32;20156;-64
2022/08/02 08:59:33;;;;;;;14.20;9.13;;;;;;;;;;4389864;32;20156;-64
2022/08/02 09:02:01;;;;;;;11.38;7.70;;;;;;;;;;4391083;32;20081;-64
2022/08/02 09:04:28;;;;;;;12.65;7.57;;;;;;;;;;4389735;32;20097;-64
2022/08/02 09:06:54;;;;;;;13.27;8.70;;;;;;;;;;4376821;32;20077;-64
2022/08/02 09:09:21;;;;;;;11.80;8.70;;;;;;;;;;4390860;32;20089;-65
2022/08/02 09:11:48;;;;;;;13.75;8.18;;;;;;;;;;4390730;32;20170;-63
2022/08/02 09:14:27;;;;;;;12.50;8.05;;;;;;;;;;4376813;32;20101;-64
2022/08/02 09:16:54;;;;;;;10.57;6.95;;;;;;;;;;4364623;32;20089;-64
2022/08/02 09:19:25;;;;;;;10.73;7.60;;;;;;;;;;4389969;32;20515;-64
2022/08/02 09:22:01;;;;;;;12.90;7.82;;;;;;;;;;4390197;32;20093;-64
2022/08/02 09:24:27;;;;;;;10.27;7.65;;;;;;;;;;4392766;32;20182;-64
2022/08/02 09:26:54;;;;;;;12.37;8.48;;;;;;;;;;4379909;32;20070;-65
2022/08/02 09:29:24;;;;;;;10.25;7.47;;;;;;;;;;4393640;32;20582;-64
2022/08/02 09:31:51;;;;;;;9.95;7.40;;;;;;;;;;4391918;32;20080;-64
2022/08/02 09:34:18;;;;;;;9.90;6.45;;;;;;;;;;4367137;32;20186;-64
2022/08/02 09:36:47;;;;;;;11.63;8.40;;;;;;;;;;4392474;32;20116;-64
2022/08/02 09:39:15;;;;;;;9.93;7.50;;;;;;;;;;4392509;32;20073;-64
2022/08/02 09:41:44;;;;;;;11.25;8.02;;;;;;;;;;4392098;32;20074;-64
2022/08/02 09:44:17;;;;;;;13.18;8.23;;;;;;;;;;4379418;32;20097;-64
2022/08/02 09:46:45;;;;;;;10.00;7.18;;;;;;;;;;4391990;32;20500;-64
2022/08/02 09:49:16;;;;;;;11.12;6.93;;;;;;;;;;4391865;32;20152;-64
2022/08/02 09:51:46;;;;;;;10.20;7.57;;;;;;;;;;4391909;32;20077;-63
2022/08/02 09:54:16;;;;;;;12.85;7.68;;;;;;;;;;4393487;32;20077;-64
2022/08/02 09:56:49;;;;;;;10.85;7.53;;;;;;;;;;4393531;32;20237;-64
2022/08/02 09:59:16;;;;;;;10.43;7.60;;;;;;;;;;4391868;32;20089;-63
2022/08/02 10:01:45;;;;;;;10.77;7.90;;;;;;;;;;4391800;32;20074;-64
2022/08/02 10:04:13;;;;;;;9.68;7.50;;;;;;;;;;4392471;32;20150;-64
2022/08/02 10:06:41;;;;;;;9.35;6.95;;;;;;;;;;4379440;32;20093;-64
2022/08/02 10:09:09;;;;;;;9.43;6.50;;;;;;;;;;4391936;32;20084;-64
2022/08/02 10:11:36;;;;;;;11.40;8.50;;;;;;;;;;4379114;32;20074;-64
2022/08/02 10:18:04;;;;;;;13.93;8.10;;;;;;;;;;4393057;32;20085;-63
2022/08/02 10:24:04;;;;;;;11.90;8.27;;;;;;;;;;4393141;32;20081;-63
2022/08/02 10:29:57;;;;;;;12.80;8.45;;;;;;;;;;4393106;32;20046;-65
2022/08/02 10:32:42;;;;;;;12.32;8.75;;;;;;;;;;4391458;32;20089;-65
2022/08/02 10:39:29;;;;;;;10.73;6.68;;;;;;;;;;4392532;32;20072;-63
2022/08/02 11:25:56;;;;;;;9.52;6.80;;;;;;;;;;4387658;32;20100;-65
2022/08/02 21:59:06;;;;;;;15.90;10.20;;;;;;;;;;4346427;33;20166;-64
2022/08/02 22:16:54;;;;;;;15.80;10.10;;;;;;;;;;4346163;33;20552;-65
2022/08/02 22:34:27;;;;;;;17.62;9.95;;;;;;;;;;4393253;32;20467;-64
2022/08/02 22:36:54;;;;;;;14.93;10.55;;;;;;;;;;4391311;32;20460;-64
2022/08/02 22:39:21;;;;;;;13.25;9.50;;;;;;;;;;4393091;32;20078;-63
2022/08/02 22:41:48;;;;;;;16.60;10.07;;;;;;;;;;4391386;32;20263;-64
2022/08/02 22:44:15;;;;;;;18.45;10.40;;;;;;;;;;4378534;32;20076;-64
2022/08/02 22:46:41;;;;;;;17.98;11.40;;;;;;;;;;4391261;32;20077;-64
2022/08/02 22:49:08;;;;;;;15.95;10.02;;;;;;;;;;4391347;32;20093;-64
2022/08/02 22:51:34;;;;;;;15.30;10.07;;;;;;;;;;4390533;32;20119;-64
2022/08/02 22:54:01;;;;;;;18.12;10.60;;;;;;;;;;4390218;32;20073;-64
2022/08/02 22:56:28;;;;;;;14.87;10.10;;;;;;;;;;4378056;32;20149;-63
2022/08/02 22:58:54;;;;;;;15.10;10.50;;;;;;;;;;4390540;32;20456;-65
2022/08/02 23:01:21;;;;;;;18.85;9.90;;;;;;;;;;4390499;32;20514;-64
2022/08/02 23:03:48;;;;;;;15.55;10.45;;;;;;;;;;4390591;32;20085;-65
2022/08/02 23:06:17;;;;;;;15.48;10.48;;;;;;;;;;4378325;32;20085;-64
2022/08/02 23:08:44;;;;;;;13.88;10.00;;;;;;;;;;4391782;32;20144;-64
2022/08/02 23:11:12;;;;;;;17.75;9.90;;;;;;;;;;4389903;32;20525;-64
2022/08/02 23:13:39;;;;;;;15.90;10.95;;;;;;;;;;4391484;32;20526;-64
2022/08/02 23:21:37;;;;;;;17.23;10.48;;;;;;;;;;4390773;32;20069;-65
2022/08/02 23:24:04;;;;;;;18.20;10.23;;;;;;;;;;4390234;32;20096;-65
2022/08/02 23:26:31;;;;;;;15.80;10.95;;;;;;;;;;4390081;32;20097;-63
2022/08/02 23:28:57;;;;;;;14.50;10.25;;;;;;;;;;4390207;32;20088;-64
2022/08/02 23:31:35;;;;;;;14.63;10.38;;;;;;;;;;4389980;32;20073;-64
2022/08/02 23:34:03;;;;;;;15.75;11.30;;;;;;;;;;4389954;32;20081;-64
2022/08/02 23:36:31;;;;;;;18.23;10.35;;;;;;;;;;4390440;32;20158;-64
2022/08/02 23:38:58;;;;;;;14.57;9.55;;;;;;;;;;4390010;32;20463;-64
2022/08/02 23:41:25;;;;;;;15.65;9.80;;;;;;;;;;4389119;32;20550;-64
2022/08/02 23:43:52;;;;;;;19.37;9.77;;;;;;;;;;4389985;32;20071;-64
2022/08/02 23:46:18;;;;;;;16.35;9.77;;;;;;;;;;4377773;32;20153;-64
2022/08/02 23:48:45;;;;;;;14.27;10.13;;;;;;;;;;4389689;32;20070;-64
2022/08/02 23:51:12;;;;;;;15.68;10.07;;;;;;;;;;4391500;32;20077;-64
2022/08/02 23:53:39;;;;;;;15.32;9.93;;;;;;;;;;4377786;32;20088;-64
2022/08/02 23:56:05;;;;;;;14.38;9.93;;;;;;;;;;4390160;32;20078;-64
2022/08/02 23:58:32;;;;;;;15.55;10.05;;;;;;;;;;4365241;32;20073;-65
